Time;durP1;ratioP1;P1;durP2;ratioP2;P2;SDS_P1;SDS_P2;PMS_P1;PMS_P2;Temp;Humidity;BMP_temperature;BMP_pressure;BME280_temperature;BME280_humidity;BME280_pressure;Samples;Min_cycle;Max_cycle;Signal;HPM_P1;HPM_P2
2023/04/29 00:01:07;;;;;;;31.70;18.90;;;14.30;99.90;;;;;;5031223;28;20045;-71
2023/04/29 00:03:33;;;;;;;34.05;19.50;;;14.30;99.90;;;;;;5031197;28;20029;-71
2023/04/29 00:05:59;;;;;;;36.88;20.85;;;14.30;99.90;;;;;;5030974;28;20048;-72
2023/04/29 00:08:25;;;;;;;37.88;20.58;;;14.10;99.90;;;;;;5030884;28;20044;-70
2023/04/29 00:10:51;;;;;;;38.13;20.88;;;14.10;99.90;;;;;;5030381;28;20029;-70
2023/04/29 00:13:16;;;;;;;38.42;21.20;;;14.10;99.90;;;;;;5030928;28;20099;-70
2023/04/29 00:15:42;;;;;;;41.58;22.08;;;14.10;99.90;;;;;;5031175;28;20037;-71
2023/04/29 00:18:09;;;;;;;43.40;23.67;;;14.10;99.90;;;;;;5012026;28;20038;-70
2023/04/29 00:20:36;;;;;;;48.60;24.45;;;14.10;99.90;;;;;;5011213;28;20030;-71
2023/04/29 00:23:02;;;;;;;48.97;25.00;;;14.10;99.90;;;;;;5010005;28;20109;-70
2023/04/29 00:25:28;;;;;;;50.83;24.35;;;14.10;99.90;;;;;;5011326;28;20397;-71
2023/04/29 00:27:53;;;;;;;55.88;26.75;;;14.00;99.90;;;;;;5011104;28;20563;-71
2023/04/29 00:30:19;;;;;;;52.38;26.85;;;14.10;99.90;;;;;;5010774;28;20037;-71
2023/04/29 00:32:45;;;;;;;61.28;27.67;;;14.00;99.90;;;;;;5010983;28;20065;-71
2023/04/29 00:35:11;;;;;;;57.25;28.60;;;14.00;99.90;;;;;;5010899;28;20025;-70
2023/04/29 00:37:36;;;;;;;57.97;27.80;;;14.00;99.90;;;;;;5011345;28;20021;-71
2023/04/29 00:40:03;;;;;;;57.95;28.30;;;14.00;99.90;;;;;;5010923;28;20439;-71
2023/04/29 00:42:32;;;;;;;58.50;28.25;;;13.90;99.90;;;;;;5010825;28;20402;-72
2023/04/29 00:44:58;;;;;;;58.90;27.70;;;14.00;99.90;;;;;;5009683;28;20062;-71
2023/04/29 00:47:23;;;;;;;60.53;28.75;;;13.90;99.90;;;;;;5010795;28;20062;-71
2023/04/29 00:49:49;;;;;;;57.40;27.40;;;13.80;99.90;;;;;;5010125;28;20452;-72
2023/04/29 00:52:16;;;;;;;59.28;28.48;;;13.80;99.90;;;;;;5010711;28;20387;-71
2023/04/29 00:54:43;;;;;;;58.45;27.48;;;13.80;99.90;;;;;;5010756;28;20103;-71
2023/04/29 00:57:09;;;;;;;59.72;27.70;;;13.80;99.90;;;;;;5010671;28;20353;-71
2023/04/29 00:59:35;;;;;;;58.50;27.05;;;13.80;99.90;;;;;;5010959;28;20049;-71
2023/04/29 01:02:02;;;;;;;57.28;26.98;;;13.90;99.90;;;;;;5010590;28;20022;-71
2023/04/29 01:04:29;;;;;;;52.20;26.88;;;13.70;99.90;;;;;;5011375;28;20040;-71
2023/04/29 01:06:58;;;;;;;54.60;25.27;;;13.70;99.90;;;;;;5010768;28;20077;-71
2023/04/29 01:09:28;;;;;;;55.58;25.27;;;13.80;99.90;;;;;;5010569;28;20049;-72
2023/04/29 01:12:24;;;;;;;54.42;25.77;;;13.90;99.90;;;;;;5010569;28;20129;-71
2023/04/29 01:14:59;;;;;;;50.42;24.05;;;13.70;99.90;;;;;;5009458;28;20034;-73
2023/04/29 01:17:26;;;;;;;51.63;25.50;;;13.80;99.90;;;;;;5011049;28;20052;-72
2023/04/29 01:19:54;;;;;;;55.55;25.77;;;13.70;99.90;;;;;;5011218;28;20355;-73
2023/04/29 01:22:21;;;;;;;46.45;23.55;;;13.60;99.90;;;;;;5010573;28;20111;-72
2023/04/29 01:24:48;;;;;;;46.83;22.85;;;13.50;99.90;;;;;;5009443;28;20486;-73
2023/04/29 01:27:28;;;;;;;45.92;22.70;;;13.50;99.90;;;;;;5010264;28;20480;-72
2023/04/29 01:30:04;;;;;;;52.38;25.63;;;13.60;99.90;;;;;;5010443;28;20038;-72
2023/04/29 01:32:42;;;;;;;47.58;24.30;;;13.70;99.90;;;;;;5010654;28;20040;-73
2023/04/29 01:35:22;;;;;;;51.05;24.27;;;13.50;99.90;;;;;;5012936;28;20025;-73
2023/04/29 01:38:12;;;;;;;48.45;23.80;;;13.70;99.90;;;;;;5030603;28;20030;-73
2023/04/29 01:40:47;;;;;;;47.65;24.83;;;13.50;99.90;;;;;;5029199;28;20047;-73
2023/04/29 01:43:14;;;;;;;48.28;22.40;;;13.60;99.90;;;;;;5033565;28;20038;-73
2023/04/29 01:45:40;;;;;;;46.45;22.45;;;13.60;99.90;;;;;;5033657;28;20342;-73
2023/04/29 01:48:07;;;;;;;49.75;24.02;;;13.40;99.90;;;;;;5033339;28;20038;-71
2023/04/29 01:50:33;;;;;;;48.15;22.48;;;13.40;99.90;;;;;;5033510;28;20037;-71
2023/04/29 01:52:59;;;;;;;41.35;21.52;;;13.40;99.90;;;;;;5033290;28;20021;-72
2023/04/29 01:55:25;;;;;;;42.35;21.48;;;13.40;99.90;;;;;;5033209;28;20095;-72
2023/04/29 01:57:50;;;;;;;40.58;20.73;;;13.40;99.90;;;;;;5033570;28;20456;-73
2023/04/29 02:00:16;;;;;;;39.03;20.40;;;13.40;99.90;;;;;;5033354;28;20116;-72
2023/04/29 02:02:42;;;;;;;38.17;20.08;;;13.30;99.90;;;;;;5032264;28;20041;-72
2023/04/29 02:05:08;;;;;;;38.05;20.17;;;13.30;99.90;;;;;;5033148;28;20032;-72
2023/04/29 02:07:34;;;;;;;36.83;20.05;;;13.30;99.90;;;;;;5032568;28;20125;-73
2023/04/29 02:10:00;;;;;;;40.25;20.92;;;13.30;99.90;;;;;;5033242;28;20112;-72
2023/04/29 02:12:25;;;;;;;39.65;19.13;;;13.30;99.90;;;;;;5033312;28;20044;-72
2023/04/29 02:14:52;;;;;;;39.90;19.80;;;13.40;99.90;;;;;;5033388;28;20084;-72
2023/04/29 02:17:18;;;;;;;36.60;20.40;;;13.50;99.90;;;;;;5033138;28;20033;-72
2023/04/29 02:19:43;;;;;;;34.22;18.33;;;13.40;99.90;;;;;;5033587;28;20043;-72
2023/04/29 02:22:11;;;;;;;36.50;20.52;;;13.50;99.90;;;;;;5032981;28;20029;-71
2023/04/29 02:24:37;;;;;;;40.67;21.25;;;13.40;99.90;;;;;;5033027;28;20041;-72
2023/04/29 02:27:04;;;;;;;43.03;23.67;;;13.30;99.90;;;;;;5031744;28;20045;-72
2023/04/29 02:29:31;;;;;;;41.72;23.90;;;13.40;99.90;;;;;;5031880;28;20045;-72
2023/04/29 02:31:56;;;;;;;46.47;25.38;;;13.30;99.90;;;;;;5032818;28;20022;-72
2023/04/29 02:34:23;;;;;;;48.22;24.38;;;13.40;99.90;;;;;;5033698;28;20108;-74
2023/04/29 02:36:49;;;;;;;46.83;24.27;;;13.40;99.90;;;;;;5032886;28;20037;-73
2023/04/29 02:39:15;;;;;;;53.13;25.83;;;13.40;99.90;;;;;;5032878;28;20415;-74
2023/04/29 02:41:42;;;;;;;48.00;23.88;;;13.30;99.90;;;;;;5031802;28;20026;-73
2023/04/29 02:44:07;;;;;;;51.13;25.35;;;13.30;99.90;;;;;;5032729;28;20025;-73
2023/04/29 02:46:35;;;;;;;49.40;24.95;;;13.40;99.90;;;;;;5033483;28;20474;-73
2023/04/29 02:49:01;;;;;;;47.20;24.60;;;13.20;99.90;;;;;;5032681;28;20078;-75
2023/04/29 02:51:27;;;;;;;43.22;22.65;;;13.20;99.90;;;;;;5032539;28;20550;-73
2023/04/29 02:53:53;;;;;;;44.38;22.60;;;13.00;99.90;;;;;;5032092;28;20044;-73
2023/04/29 02:56:19;;;;;;;39.65;22.08;;;13.00;99.90;;;;;;5032403;28;20034;-74
2023/04/29 02:58:45;;;;;;;43.40;22.30;;;13.10;99.90;;;;;;5033209;28;20335;-73
2023/04/29 03:01:10;;;;;;;39.95;21.70;;;13.30;99.90;;;;;;5032444;28;20045;-72
2023/04/29 03:03:36;;;;;;;36.30;21.38;;;13.40;99.90;;;;;;5032477;28;20060;-73
2023/04/29 03:06:02;;;;;;;34.55;20.65;;;13.50;99.90;;;;;;5032193;28;20080;-73
2023/04/29 03:08:28;;;;;;;32.70;19.17;;;13.50;99.90;;;;;;5032214;28;20033;-72
2023/04/29 03:10:53;;;;;;;31.38;19.23;;;13.40;99.90;;;;;;5031990;28;20596;-72
2023/04/29 03:13:19;;;;;;;28.08;17.75;;;13.40;99.90;;;;;;5031469;28;20034;-72
2023/04/29 03:15:45;;;;;;;30.42;17.58;;;13.40;99.90;;;;;;5032371;28;20048;-72
2023/04/29 03:18:11;;;;;;;28.60;18.88;;;13.40;99.90;;;;;;5032132;28;20049;-72
2023/04/29 03:20:36;;;;;;;29.35;17.98;;;13.40;99.90;;;;;;5032340;28;20049;-73
2023/04/29 03:23:02;;;;;;;29.33;17.80;;;13.40;99.90;;;;;;5030608;28;20462;-73
2023/04/29 03:25:28;;;;;;;28.00;18.40;;;13.30;99.90;;;;;;5032275;28;20104;-72
2023/04/29 03:27:53;;;;;;;29.58;18.52;;;13.40;99.90;;;;;;5031902;28;20053;-72
2023/04/29 03:30:19;;;;;;;28.17;19.15;;;13.30;99.90;;;;;;5031664;28;20034;-73
2023/04/29 03:32:44;;;;;;;29.25;18.73;;;13.20;99.90;;;;;;5031576;28;20124;-72
2023/04/29 03:35:10;;;;;;;30.70;20.40;;;13.10;99.90;;;;;;5031499;28;20037;-72
2023/04/29 03:37:36;;;;;;;33.10;21.10;;;13.30;99.90;;;;;;5032036;28;20017;-74
2023/04/29 03:40:03;;;;;;;31.95;20.55;;;13.20;99.90;;;;;;5030445;28;20029;-74
2023/04/29 03:42:28;;;;;;;32.38;20.83;;;13.10;99.90;;;;;;5031388;28;20030;-74
2023/04/29 03:44:54;;;;;;;33.47;22.00;;;13.10;99.90;;;;;;5031264;28;20048;-73
2023/04/29 03:47:19;;;;;;;34.85;21.63;;;13.00;99.90;;;;;;5031540;28;20040;-73
2023/04/29 03:49:45;;;;;;;39.28;24.23;;;13.00;99.90;;;;;;5031665;28;20626;-72
2023/04/29 03:52:11;;;;;;;37.95;25.02;;;12.60;99.90;;;;;;5031600;28;20108;-73
2023/04/29 03:54:37;;;;;;;39.80;25.33;;;12.50;99.90;;;;;;5031162;28;20132;-72
2023/04/29 03:57:03;;;;;;;39.58;24.55;;;12.60;99.90;;;;;;5031173;28;20033;-73
2023/04/29 03:59:29;;;;;;;39.00;25.05;;;12.40;99.90;;;;;;5031148;28;20422;-73
2023/04/29 04:01:55;;;;;;;43.55;25.77;;;12.50;99.90;;;;;;5031050;28;20026;-74
2023/04/29 04:04:20;;;;;;;46.60;26.63;;;12.60;99.90;;;;;;5030204;28;20359;-72
2023/04/29 04:06:50;;;;;;;46.80;27.42;;;12.50;99.90;;;;;;5029409;28;20387;-73
2023/04/29 04:09:17;;;;;;;49.60;28.90;;;12.40;99.90;;;;;;5029771;28;20041;-74
2023/04/29 04:11:43;;;;;;;55.47;29.85;;;12.50;99.90;;;;;;5031099;28;20033;-73
2023/04/29 04:14:09;;;;;;;58.20;31.70;;;12.50;99.90;;;;;;5031042;28;20379;-74
2023/04/29 04:16:35;;;;;;;56.20;31.80;;;12.50;99.90;;;;;;5030573;28;20029;-74
2023/04/29 04:19:00;;;;;;;56.50;33.20;;;12.40;99.90;;;;;;5030941;28;20049;-74
2023/04/29 04:21:26;;;;;;;63.65;33.75;;;12.60;99.90;;;;;;5031128;28;20036;-73
2023/04/29 04:23:52;;;;;;;61.15;33.65;;;12.50;99.90;;;;;;5030875;28;20034;-73
2023/04/29 04:26:19;;;;;;;65.22;34.55;;;12.50;99.90;;;;;;5030706;28;20460;-73
2023/04/29 04:28:45;;;;;;;67.72;36.55;;;12.40;99.90;;;;;;5030227;28;20287;-73
2023/04/29 04:31:13;;;;;;;68.60;36.00;;;12.40;99.90;;;;;;5030988;28;20060;-73
2023/04/29 04:33:39;;;;;;;70.53;36.42;;;12.30;99.90;;;;;;5030674;28;20029;-73
2023/04/29 04:36:06;;;;;;;69.60;37.00;;;12.40;99.90;;;;;;5030588;28;20025;-74
2023/04/29 04:38:31;;;;;;;70.80;37.10;;;12.50;99.90;;;;;;5030644;28;20033;-73
2023/04/29 04:40:57;;;;;;;75.20;37.92;;;12.50;99.90;;;;;;5029473;28;20018;-73
2023/04/29 04:43:23;;;;;;;71.43;38.05;;;12.50;99.90;;;;;;5031053;28;20030;-72
2023/04/29 04:45:49;;;;;;;70.47;37.38;;;12.60;99.90;;;;;;5030912;28;20120;-72
2023/04/29 04:48:14;;;;;;;68.32;37.78;;;12.70;99.90;;;;;;5030393;28;20041;-73
2023/04/29 04:50:40;;;;;;;74.97;40.35;;;12.70;99.90;;;;;;5029513;28;20374;-74
2023/04/29 04:53:06;;;;;;;80.28;40.15;;;12.40;99.90;;;;;;5030681;28;20022;-73
2023/04/29 04:55:32;;;;;;;80.07;41.08;;;12.40;99.90;;;;;;5031121;28;20029;-73
2023/04/29 04:57:58;;;;;;;83.05;40.58;;;12.40;99.90;;;;;;5030447;28;20061;-73
2023/04/29 05:00:24;;;;;;;82.68;40.92;;;12.50;99.90;;;;;;5030402;28;20068;-73
2023/04/29 05:02:50;;;;;;;81.15;40.38;;;12.40;99.90;;;;;;5029476;28;20045;-73
2023/04/29 05:05:15;;;;;;;68.25;38.08;;;12.40;99.90;;;;;;5030303;28;20099;-73
2023/04/29 05:07:41;;;;;;;68.68;37.38;;;12.20;99.90;;;;;;5030862;28;20415;-73
2023/04/29 05:10:08;;;;;;;71.15;38.03;;;12.00;99.90;;;;;;5029237;28;20113;-74
2023/04/29 05:12:34;;;;;;;70.20;36.70;;;12.20;99.90;;;;;;5030476;28;20033;-74
2023/04/29 05:15:00;;;;;;;64.45;36.17;;;12.30;99.90;;;;;;5030207;28;20483;-73
2023/04/29 05:17:26;;;;;;;64.00;33.90;;;12.40;99.90;;;;;;5032676;28;20046;-74
2023/04/29 05:19:52;;;;;;;56.05;31.95;;;12.50;99.90;;;;;;5034805;28;20107;-74
2023/04/29 05:22:17;;;;;;;54.72;31.25;;;12.50;99.90;;;;;;5032990;28;20044;-75
2023/04/29 05:24:43;;;;;;;52.10;30.88;;;12.50;99.90;;;;;;5032880;28;20045;-73
2023/04/29 05:27:09;;;;;;;51.88;28.55;;;12.50;99.90;;;;;;5034009;28;20157;-73
2023/04/29 05:29:34;;;;;;;46.22;27.08;;;12.50;99.90;;;;;;5033942;28;20056;-75
2023/04/29 05:32:00;;;;;;;43.08;24.77;;;12.50;99.90;;;;;;5033760;28;20040;-73
2023/04/29 05:34:25;;;;;;;45.55;27.02;;;12.40;99.90;;;;;;5033643;28;20359;-73
2023/04/29 05:36:51;;;;;;;48.55;26.02;;;12.40;99.90;;;;;;5013870;28;20040;-72
2023/04/29 05:39:17;;;;;;;47.92;27.65;;;12.40;99.90;;;;;;5013826;28;20208;-72
2023/04/29 05:41:43;;;;;;;47.20;26.55;;;12.30;99.90;;;;;;5013754;28;20038;-72
2023/04/29 05:44:09;;;;;;;53.67;27.23;;;12.30;99.90;;;;;;5013578;28;20513;-72
2023/04/29 05:46:34;;;;;;;50.67;27.08;;;12.30;99.90;;;;;;5014298;28;20032;-72
2023/04/29 05:49:00;;;;;;;52.72;27.48;;;12.30;99.90;;;;;;5013581;28;20040;-72
2023/04/29 05:51:27;;;;;;;51.03;27.52;;;12.30;99.90;;;;;;5012573;28;20026;-72
2023/04/29 05:53:58;;;;;;;50.88;27.92;;;12.40;99.90;;;;;;5013685;28;20025;-72
2023/04/29 05:56:23;;;;;;;46.13;26.20;;;12.50;99.90;;;;;;5013869;28;20096;-72
2023/04/29 05:58:49;;;;;;;47.50;25.88;;;12.50;99.90;;;;;;5013962;28;20018;-72
2023/04/29 06:01:16;;;;;;;46.75;26.52;;;12.50;99.90;;;;;;5013787;28;20068;-72
2023/04/29 06:03:42;;;;;;;47.83;26.60;;;12.50;99.90;;;;;;5012260;28;20060;-71
2023/04/29 06:06:08;;;;;;;45.60;25.63;;;12.50;99.90;;;;;;5012221;28;20026;-72
2023/04/29 06:08:34;;;;;;;47.28;25.48;;;12.30;99.90;;;;;;5013088;28;20044;-72
2023/04/29 06:11:02;;;;;;;50.13;27.13;;;12.30;99.90;;;;;;5013150;28;20034;-72
2023/04/29 06:13:29;;;;;;;44.90;25.20;;;12.30;99.90;;;;;;5013510;28;20018;-72
2023/04/29 06:15:54;;;;;;;42.78;24.83;;;12.40;99.90;;;;;;5012889;28;20060;-70
2023/04/29 06:18:20;;;;;;;43.90;24.40;;;12.60;99.90;;;;;;5012807;28;20443;-72
2023/04/29 06:20:46;;;;;;;44.47;23.90;;;12.60;99.90;;;;;;5012775;28;20030;-71
2023/04/29 06:23:11;;;;;;;43.65;23.63;;;12.60;99.90;;;;;;5012700;28;20038;-72
2023/04/29 06:25:37;;;;;;;48.92;24.73;;;12.60;99.90;;;;;;5013237;28;20032;-72
2023/04/29 06:28:03;;;;;;;40.80;23.67;;;12.70;99.90;;;;;;5011770;28;20030;-72
2023/04/29 06:30:29;;;;;;;41.78;22.60;;;12.80;99.90;;;;;;5011748;28;20084;-71
2023/04/29 06:32:54;;;;;;;37.72;21.23;;;12.80;99.90;;;;;;5012890;28;20030;-71
2023/04/29 06:35:20;;;;;;;37.30;21.48;;;12.80;99.90;;;;;;5011594;28;20104;-72
2023/04/29 06:37:46;;;;;;;40.38;21.65;;;12.80;99.90;;;;;;5013399;28;20038;-72
2023/04/29 06:40:12;;;;;;;39.88;20.90;;;12.80;99.90;;;;;;5012720;28;20061;-71
2023/04/29 06:42:38;;;;;;;39.13;21.73;;;12.90;99.90;;;;;;5012700;28;20022;-71
2023/04/29 06:45:04;;;;;;;36.53;19.88;;;12.90;99.90;;;;;;5012654;28;20052;-71
2023/04/29 06:47:29;;;;;;;34.88;20.75;;;12.90;99.90;;;;;;5012320;28;20380;-71
2023/04/29 06:49:55;;;;;;;31.48;20.05;;;12.90;99.90;;;;;;5012784;28;20026;-71
2023/04/29 06:52:21;;;;;;;34.67;19.75;;;12.90;99.90;;;;;;5012905;28;20033;-71
2023/04/29 06:54:46;;;;;;;43.97;20.60;;;12.90;99.90;;;;;;5011437;28;20038;-72
2023/04/29 06:57:12;;;;;;;32.90;19.40;;;13.00;99.90;;;;;;5028818;28;20049;-70
2023/04/29 06:59:37;;;;;;;35.42;19.92;;;12.90;99.90;;;;;;5032447;28;20033;-72
2023/04/29 07:02:03;;;;;;;35.78;19.40;;;13.00;99.90;;;;;;5031222;28;20115;-73
2023/04/29 07:04:29;;;;;;;32.83;19.25;;;13.10;99.90;;;;;;5032580;28;20056;-71
2023/04/29 07:06:55;;;;;;;28.67;17.63;;;13.00;99.90;;;;;;5030974;28;20439;-72
2023/04/29 07:09:22;;;;;;;29.52;17.50;;;13.20;99.90;;;;;;5030625;28;20041;-70
2023/04/29 07:11:48;;;;;;;28.30;17.27;;;13.10;99.90;;;;;;5032382;28;20041;-71
2023/04/29 07:14:14;;;;;;;28.85;17.75;;;13.20;99.90;;;;;;5031194;28;20271;-72
2023/04/29 07:16:39;;;;;;;27.63;17.45;;;13.20;99.90;;;;;;5031436;28;20022;-70
2023/04/29 07:19:05;;;;;;;29.05;17.20;;;13.30;99.90;;;;;;5031897;28;20048;-71
2023/04/29 07:21:31;;;;;;;31.13;15.77;;;13.40;99.90;;;;;;5031768;28;20026;-70
2023/04/29 07:23:59;;;;;;;25.30;16.08;;;13.20;99.90;;;;;;5030508;28;20034;-69
2023/04/29 07:26:25;;;;;;;26.30;15.85;;;13.40;99.90;;;;;;5031866;28;20387;-74
2023/04/29 07:28:51;;;;;;;22.33;14.57;;;13.60;99.90;;;;;;5031152;28;20029;-70
2023/04/29 07:31:16;;;;;;;21.77;14.15;;;13.50;99.90;;;;;;5031769;28;20032;-69
2023/04/29 07:33:43;;;;;;;29.60;14.35;;;13.70;99.90;;;;;;5031667;28;20083;-72
2023/04/29 07:36:10;;;;;;;22.30;13.20;;;13.90;99.90;;;;;;5030720;28;20030;-71
2023/04/29 07:38:35;;;;;;;17.08;12.10;;;14.10;99.90;;;;;;5031500;28;20346;-71
2023/04/29 07:41:03;;;;;;;20.85;13.18;;;14.30;99.90;;;;;;5031145;28;20105;-70
2023/04/29 07:43:29;;;;;;;21.35;13.05;;;14.40;99.90;;;;;;5030793;28;20371;-71
2023/04/29 07:45:55;;;;;;;21.15;13.48;;;14.40;99.90;;;;;;5031429;28;20029;-71
2023/04/29 07:48:21;;;;;;;22.48;13.43;;;14.50;99.90;;;;;;5031064;28;20033;-69
2023/04/29 07:50:46;;;;;;;18.42;12.00;;;14.50;99.90;;;;;;5031202;28;20029;-69
2023/04/29 07:53:12;;;;;;;18.70;12.55;;;14.50;99.90;;;;;;5031280;28;22738;-70
2023/04/29 07:55:38;;;;;;;17.85;11.57;;;14.60;99.90;;;;;;5031682;28;20452;-69
2023/04/29 07:58:03;;;;;;;19.50;11.23;;;14.70;99.90;;;;;;5031554;28;20048;-70
2023/04/29 08:00:30;;;;;;;17.67;10.30;;;15.00;99.90;;;;;;5031228;28;20549;-71
2023/04/29 08:02:56;;;;;;;17.67;11.60;;;15.30;99.30;;;;;;5031100;28;20052;-71
2023/04/29 08:05:22;;;;;;;16.15;10.00;;;15.40;99.00;;;;;;5031084;28;20033;-71
2023/04/29 08:07:51;;;;;;;15.70;10.85;;;15.50;98.90;;;;;;5031272;28;20029;-71
2023/04/29 08:10:18;;;;;;;14.07;9.23;;;15.60;98.60;;;;;;5030971;28;20059;-71
2023/04/29 08:12:48;;;;;;;15.00;9.18;;;15.60;98.30;;;;;;5030875;28;20025;-71
2023/04/29 08:15:14;;;;;;;17.05;9.25;;;15.60;98.20;;;;;;5030774;28;20057;-71
2023/04/29 08:17:40;;;;;;;16.95;9.68;;;15.70;98.10;;;;;;5030937;28;20467;-71
2023/04/29 08:20:07;;;;;;;15.07;8.07;;;15.70;97.80;;;;;;5030790;28;20108;-71
2023/04/29 08:22:33;;;;;;;12.88;8.93;;;15.80;97.90;;;;;;5019110;28;20060;-72
2023/04/29 08:24:58;;;;;;;13.82;9.80;;;15.90;97.80;;;;;;4994578;28;20061;-71
2023/04/29 08:27:24;;;;;;;14.15;9.05;;;16.00;97.80;;;;;;5012312;28;20302;-72
2023/04/29 08:29:50;;;;;;;12.38;8.65;;;16.20;97.70;;;;;;5012499;28;20046;-72
2023/04/29 08:32:16;;;;;;;15.18;9.73;;;16.20;97.20;;;;;;5012590;28;20057;-74
2023/04/29 08:34:43;;;;;;;14.70;8.95;;;16.10;96.70;;;;;;5012034;28;20124;-73
2023/04/29 08:37:09;;;;;;;14.20;9.88;;;16.10;96.80;;;;;;5012544;28;20064;-71
2023/04/29 08:39:35;;;;;;;15.68;8.73;;;16.00;96.50;;;;;;5012383;28;20049;-71
2023/04/29 08:42:10;;;;;;;18.17;8.48;;;16.10;96.50;;;;;;5011870;28;20034;-71
2023/04/29 08:44:36;;;;;;;14.13;8.18;;;16.10;96.70;;;;;;5011760;28;20041;-71
2023/04/29 08:47:02;;;;;;;11.93;7.75;;;16.10;96.20;;;;;;5011776;28;20029;-72
2023/04/29 08:49:28;;;;;;;13.25;8.45;;;16.00;96.20;;;;;;5010993;28;20034;-72
2023/04/29 08:51:54;;;;;;;13.32;6.63;;;16.00;95.80;;;;;;5011040;28;20030;-73
2023/04/29 08:54:20;;;;;;;12.60;6.88;;;15.90;95.70;;;;;;5010660;28;20483;-72
2023/04/29 08:56:46;;;;;;;10.20;7.07;;;15.80;95.80;;;;;;5012254;28;20049;-72
2023/04/29 08:59:16;;;;;;;8.45;6.65;;;15.90;95.80;;;;;;5012031;28;20554;-72
2023/04/29 09:01:43;;;;;;;11.18;6.30;;;15.90;95.60;;;;;;5011950;28;20041;-72
2023/04/29 09:04:14;;;;;;;13.13;7.88;;;15.90;95.60;;;;;;5011874;28;20041;-72
2023/04/29 09:06:40;;;;;;;11.68;7.30;;;16.00;95.80;;;;;;5010170;28;20053;-72
2023/04/29 09:09:06;;;;;;;14.88;8.10;;;16.00;95.50;;;;;;5011645;28;20061;-70
2023/04/29 09:11:33;;;;;;;9.82;6.85;;;15.90;95.40;;;;;;5011916;28;20026;-71
2023/04/29 09:14:00;;;;;;;11.95;6.85;;;16.00;95.50;;;;;;5011921;28;20038;-73
2023/04/29 09:16:36;;;;;;;12.20;6.82;;;16.10;95.40;;;;;;5012157;28;20053;-70
2023/04/29 09:19:02;;;;;;;9.85;6.75;;;16.10;95.10;;;;;;5010524;28;20045;-71
2023/04/29 09:21:31;;;;;;;15.68;7.72;;;16.10;95.10;;;;;;5010226;28;20026;-73
2023/04/29 09:24:02;;;;;;;10.25;6.45;;;16.10;94.90;;;;;;5010266;28;20321;-71
2023/04/29 09:26:40;;;;;;;11.55;7.03;;;16.00;95.00;;;;;;5011159;28;20376;-73
2023/04/29 09:29:10;;;;;;;11.52;6.70;;;16.00;95.00;;;;;;5011226;28;20101;-72
2023/04/29 09:31:39;;;;;;;12.15;7.07;;;16.10;95.00;;;;;;5011940;28;20100;-70
2023/04/29 09:34:05;;;;;;;15.50;7.40;;;16.00;95.00;;;;;;5011166;28;20089;-72
2023/04/29 09:36:47;;;;;;;14.02;7.20;;;16.00;95.20;;;;;;5010989;28;20030;-71
2023/04/29 09:39:22;;;;;;;13.13;7.85;;;16.00;95.10;;;;;;5011169;28;20037;-71
2023/04/29 09:41:54;;;;;;;9.93;7.15;;;15.90;95.30;;;;;;5011191;28;20053;-72
2023/04/29 09:44:21;;;;;;;14.65;8.23;;;15.80;95.20;;;;;;5010010;28;20037;-72
2023/04/29 09:46:58;;;;;;;13.95;7.32;;;15.60;95.30;;;;;;5010622;28;20061;-71
2023/04/29 09:49:26;;;;;;;15.88;8.30;;;15.70;95.70;;;;;;5011402;28;20046;-71
2023/04/29 09:51:53;;;;;;;16.38;8.25;;;15.60;95.50;;;;;;5011129;28;20018;-72
2023/04/29 09:54:21;;;;;;;16.80;8.82;;;15.20;96.00;;;;;;5010050;28;20387;-71
2023/04/29 09:56:50;;;;;;;14.93;8.90;;;15.10;96.40;;;;;;5011167;28;20026;-71
2023/04/29 09:59:16;;;;;;;16.58;9.25;;;15.40;96.30;;;;;;5010144;28;20460;-71
2023/04/29 10:01:42;;;;;;;14.90;9.23;;;15.40;95.90;;;;;;5011662;28;20034;-70
2023/04/29 10:04:11;;;;;;;16.20;8.35;;;15.40;96.00;;;;;;5011949;28;20456;-72
2023/04/29 10:06:39;;;;;;;14.55;8.20;;;15.50;95.70;;;;;;5014311;28;20104;-72
2023/04/29 10:09:07;;;;;;;14.13;8.30;;;15.20;95.30;;;;;;5014197;28;20117;-71
2023/04/29 10:11:33;;;;;;;12.50;7.90;;;15.40;95.60;;;;;;5013256;28;20084;-73
2023/04/29 10:14:00;;;;;;;13.23;8.23;;;15.40;95.40;;;;;;5012307;28;20282;-69
2023/04/29 10:16:30;;;;;;;13.40;7.97;;;15.60;95.00;;;;;;5012575;28;20422;-72
2023/04/29 10:18:58;;;;;;;13.60;8.48;;;15.70;95.00;;;;;;5013549;28;20104;-71
2023/04/29 10:21:28;;;;;;;15.43;10.10;;;15.70;94.90;;;;;;5013774;28;20026;-72
2023/04/29 10:23:56;;;;;;;14.02;9.02;;;15.60;95.10;;;;;;5013546;28;20045;-71
2023/04/29 10:26:25;;;;;;;11.43;8.25;;;16.20;94.90;;;;;;5012082;28;20046;-69
2023/04/29 10:28:54;;;;;;;15.00;8.10;;;16.90;94.40;;;;;;5013458;28;20366;-69
2023/04/29 10:31:21;;;;;;;14.02;8.65;;;17.40;94.60;;;;;;5013407;28;20038;-70
2023/04/29 10:33:49;;;;;;;13.02;7.93;;;17.80;93.70;;;;;;5013143;28;20396;-70
2023/04/29 10:36:16;;;;;;;15.60;8.75;;;18.00;93.10;;;;;;5013116;28;20034;-70
2023/04/29 10:38:47;;;;;;;14.70;8.83;;;18.20;92.90;;;;;;5013133;28;20333;-71
2023/04/29 10:41:24;;;;;;;13.38;8.15;;;18.30;92.40;;;;;;5012773;28;20033;-72
2023/04/29 10:43:51;;;;;;;14.52;7.78;;;18.30;92.40;;;;;;5013290;28;20018;-70
2023/04/29 10:46:27;;;;;;;14.70;8.07;;;18.20;91.40;;;;;;5012850;28;20474;-69
2023/04/29 10:49:00;;;;;;;16.13;8.20;;;18.00;91.20;;;;;;5011590;28;20037;-72
2023/04/29 10:51:43;;;;;;;16.13;7.55;;;17.40;90.70;;;;;;5012541;28;20023;-70
2023/04/29 10:54:17;;;;;;;13.02;7.53;;;17.00;91.10;;;;;;5012823;28;20046;-71
2023/04/29 10:56:48;;;;;;;14.55;7.47;;;17.20;91.60;;;;;;5012532;28;20053;-72
2023/04/29 10:59:16;;;;;;;19.30;7.03;;;17.30;91.50;;;;;;5011590;28;20038;-71
2023/04/29 11:01:52;;;;;;;14.10;7.53;;;17.30;91.60;;;;;;5012921;28;20121;-71
2023/04/29 11:04:19;;;;;;;13.15;7.25;;;17.40;91.20;;;;;;5012594;28;20092;-73
2023/04/29 11:06:47;;;;;;;8.97;6.50;;;17.50;91.20;;;;;;5012375;28;20113;-72
2023/04/29 11:09:20;;;;;;;11.98;7.38;;;17.50;90.90;;;;;;5011485;28;20437;-72
2023/04/29 11:11:57;;;;;;;12.38;6.65;;;17.40;90.30;;;;;;5011180;28;20124;-72
2023/04/29 11:14:31;;;;;;;11.98;6.93;;;17.30;90.40;;;;;;5012035;28;20065;-73
2023/04/29 11:16:59;;;;;;;10.93;5.97;;;17.30;90.20;;;;;;5012074;28;20030;-73
2023/04/29 11:19:29;;;;;;;;;;;17.40;90.30;;;;;;5013039;28;20072;-71
2023/04/29 11:22:08;;;;;;;11.23;6.15;;;17.40;90.00;;;;;;5012317;28;19909;-73
2023/04/29 11:24:35;;;;;;;14.02;6.75;;;17.30;90.20;;;;;;5012015;28;20041;-71
2023/04/29 11:27:03;;;;;;;10.68;6.57;;;17.00;89.80;;;;;;5011843;28;20125;-74
2023/04/29 11:29:31;;;;;;;9.73;5.97;;;16.60;89.90;;;;;;5011972;28;20134;-73
2023/04/29 11:32:03;;;;;;;9.40;5.63;;;16.70;91.00;;;;;;5011863;28;20391;-73
2023/04/29 11:34:28;;;;;;;10.02;6.18;;;17.10;90.70;;;;;;5012493;28;20026;-74
2023/04/29 11:36:54;;;;;;;8.07;5.68;;;17.20;90.70;;;;;;5010999;28;20325;-74
2023/04/29 11:39:20;;;;;;;12.18;6.13;;;17.40;90.30;;;;;;5012365;28;20065;-73
2023/04/29 11:41:45;;;;;;;10.02;5.97;;;17.40;89.70;;;;;;5011718;28;20039;-73
2023/04/29 11:44:11;;;;;;;9.43;5.78;;;17.50;89.40;;;;;;5011760;28;20084;-73
2023/04/29 11:46:37;;;;;;;11.68;5.35;;;17.50;89.50;;;;;;5012120;28;20054;-72
2023/04/29 11:49:02;;;;;;;11.55;5.70;;;17.40;89.50;;;;;;5011525;28;20038;-72
2023/04/29 11:51:28;;;;;;;10.00;5.95;;;17.40;89.60;;;;;;5011546;28;20026;-72
2023/04/29 11:53:56;;;;;;;9.77;5.95;;;17.40;89.40;;;;;;5011588;28;20041;-71
2023/04/29 11:56:25;;;;;;;;;;;17.40;89.50;;;;;;5012578;28;20034;-72
2023/04/29 11:58:55;;;;;;;9.75;5.60;;;17.40;89.10;;;;;;5011816;28;19996;-72
2023/04/29 12:01:21;;;;;;;9.73;6.05;;;17.50;89.60;;;;;;5012028;28;20129;-71
2023/04/29 12:03:50;;;;;;;15.50;6.18;;;17.60;89.20;;;;;;5011505;28;20117;-72
2023/04/29 12:06:16;;;;;;;11.07;5.65;;;17.50;89.20;;;;;;5011355;28;20041;-72
2023/04/29 12:08:42;;;;;;;9.57;5.28;;;17.40;88.80;;;;;;5010351;28;20038;-73
2023/04/29 12:11:07;;;;;;;9.30;5.75;;;17.30;88.30;;;;;;5011337;28;20359;-72
2023/04/29 12:13:35;;;;;;;14.30;5.78;;;17.20;88.70;;;;;;5012106;28;20026;-71
2023/04/29 12:16:01;;;;;;;10.73;5.15;;;17.20;89.10;;;;;;5011385;28;20499;-70
2023/04/29 12:18:28;;;;;;;10.73;5.60;;;17.10;88.60;;;;;;5011339;28;20097;-71
2023/04/29 12:20:57;;;;;;;9.07;5.22;;;17.20;89.70;;;;;;5011272;28;20517;-72
2023/04/29 12:23:27;;;;;;;10.10;4.72;;;17.40;89.50;;;;;;5010036;28;20424;-71
2023/04/29 12:25:56;;;;;;;8.98;5.32;;;17.50;88.40;;;;;;5009583;28;20038;-70
2023/04/29 12:28:22;;;;;;;8.90;5.10;;;17.30;87.60;;;;;;5011059;28;20042;-71
2023/04/29 12:30:50;;;;;;;10.75;5.05;;;17.20;87.50;;;;;;5011205;28;20389;-71